Terminal Aerodrome Forecast
Issued by NWS

Current Version | Previous Version | Graphics & Text | Print | Product List | Glossary On
Versions: 1 2 3 4 5 6 7 8 9 10 11 12 13 14 15 16 17 18 19 20 21
000
FTUS41 KILN 081459 AAA
TAFLUK
TAF AMD
KLUK 081459Z 0815/0912 28014G22KT P6SM SCT030
     FM081700 28014G22KT P6SM OVC030
     FM082000 28012G20KT P6SM OVC040
     FM090000 28012G18KT P6SM OVC028
     FM090600 28010KT P6SM OVC022=

USA.gov is the U.S. government's official web portal to all federal, state and local government web resources and services.